Time;durP1;ratioP1;P1;durP2;ratioP2;P2;SDS_P1;SDS_P2;PMS_P1;PMS_P2;Temp;Humidity;BMP_temperature;BMP_pressure;BME280_temperature;BME280_humidity;BME280_pressure;Samples;Min_cycle;Max_cycle;Signal;HPM_P1;HPM_P2
2022/09/08 00:00:46;;;;;;;32.58;23.33;;;16.30;99.90;;;;;;5061065;28;20033;-67
2022/09/08 00:03:14;;;;;;;32.03;24.50;;;16.30;99.90;;;;;;5060357;28;20075;-68
2022/09/08 00:05:55;;;;;;;29.45;23.70;;;16.30;99.90;;;;;;5037845;28;20043;-69
2022/09/08 00:08:21;;;;;;;32.33;24.45;;;16.30;99.90;;;;;;5059488;28;20045;-69
2022/09/08 00:10:53;;;;;;;32.88;24.38;;;16.20;99.90;;;;;;5047621;28;20057;-69
2022/09/08 00:13:19;;;;;;;36.60;26.75;;;16.20;99.90;;;;;;5055971;28;20398;-69
2022/09/08 00:15:46;;;;;;;35.03;27.90;;;16.20;99.90;;;;;;5055107;28;20101;-68
2022/09/08 00:18:12;;;;;;;41.55;28.98;;;16.30;99.90;;;;;;5046039;28;20057;-68
2022/09/08 00:20:37;;;;;;;34.47;27.08;;;16.20;99.90;;;;;;5054003;28;20043;-68
2022/09/08 00:23:03;;;;;;;34.85;27.77;;;16.20;99.90;;;;;;5052443;28;20466;-68
2022/09/08 00:25:28;;;;;;;36.42;26.98;;;16.30;99.90;;;;;;5061821;28;20047;-68
2022/09/08 00:27:54;;;;;;;37.65;29.35;;;16.10;99.90;;;;;;5039147;28;20131;-69
2022/09/08 00:30:20;;;;;;;42.58;31.63;;;16.10;99.90;;;;;;5058580;28;20044;-68
2022/09/08 00:32:45;;;;;;;40.85;30.95;;;16.30;99.90;;;;;;5040867;28;20040;-69
2022/09/08 00:35:14;;;;;;;47.83;32.28;;;16.20;99.90;;;;;;5058515;28;20120;-68
2022/09/08 00:37:40;;;;;;;41.75;30.77;;;16.10;99.90;;;;;;5052210;28;20102;-68
2022/09/08 00:40:07;;;;;;;46.20;32.88;;;16.10;99.90;;;;;;5069999;28;20033;-68
2022/09/08 00:42:33;;;;;;;44.85;32.45;;;16.20;99.90;;;;;;5070629;28;20090;-68
2022/09/08 00:44:58;;;;;;;47.58;31.90;;;16.10;99.90;;;;;;5042142;28;20037;-68
2022/09/08 00:47:28;;;;;;;40.13;30.98;;;16.20;99.90;;;;;;5061910;28;20047;-68
2022/09/08 00:50:21;;;;;;;41.95;32.30;;;16.10;99.90;;;;;;5057898;28;20045;-68
2022/09/08 00:52:53;;;;;;;47.38;34.55;;;16.20;99.90;;;;;;5041788;28;20063;-68
2022/09/08 00:55:20;;;;;;;45.08;33.83;;;16.10;99.90;;;;;;5057265;28;20086;-68
2022/09/08 00:57:46;;;;;;;43.88;33.53;;;16.10;99.90;;;;;;5075060;28;20392;-68
2022/09/08 01:00:16;;;;;;;52.83;36.65;;;16.30;99.90;;;;;;5053323;28;20126;-68
2022/09/08 01:02:45;;;;;;;48.08;35.47;;;16.20;99.90;;;;;;5049633;28;20041;-69
2022/09/08 01:05:14;;;;;;;48.95;36.47;;;16.20;99.90;;;;;;5038068;28;20041;-68
2022/09/08 01:13:56;;;;;;;53.47;37.28;;;16.20;99.90;;;;;;5042882;28;20399;-69
2022/09/08 01:16:21;;;;;;;48.95;35.88;;;16.40;99.90;;;;;;5062015;28;20036;-69
2022/09/08 01:18:47;;;;;;;51.13;37.75;;;16.20;99.90;;;;;;5056161;28;20082;-69
2022/09/08 01:21:28;;;;;;;54.42;39.55;;;16.30;99.90;;;;;;5057526;28;20043;-69
2022/09/08 01:24:13;;;;;;;51.63;38.05;;;16.30;99.90;;;;;;5077223;28;20033;-69
2022/09/08 01:27:04;;;;;;;55.90;40.70;;;16.30;99.90;;;;;;5056028;28;20042;-69
2022/09/08 01:29:30;;;;;;;52.70;39.40;;;16.40;99.90;;;;;;5053136;28;20048;-69
2022/09/08 01:31:57;;;;;;;53.40;39.92;;;16.30;99.90;;;;;;5057519;28;20041;-68
2022/09/08 01:34:23;;;;;;;55.83;39.78;;;16.30;99.90;;;;;;5054851;28;20041;-69
2022/09/08 01:36:49;;;;;;;56.42;39.60;;;16.30;99.90;;;;;;5048682;28;20238;-69
2022/09/08 01:39:14;;;;;;;54.97;40.83;;;16.40;99.90;;;;;;5056443;28;20093;-69
2022/09/08 01:41:40;;;;;;;56.00;40.45;;;16.50;99.90;;;;;;5056951;28;20036;-69
2022/09/08 01:44:05;;;;;;;55.28;39.33;;;16.50;99.90;;;;;;5058805;28;20467;-68
2022/09/08 01:46:31;;;;;;;55.35;40.88;;;16.60;99.90;;;;;;5058788;28;20051;-69
2022/09/08 01:48:57;;;;;;;53.55;40.00;;;16.50;99.90;;;;;;5044003;28;20055;-69
2022/09/08 01:51:23;;;;;;;54.90;41.00;;;16.40;99.90;;;;;;5051496;28;20116;-69
2022/09/08 01:53:48;;;;;;;60.25;42.38;;;16.60;99.90;;;;;;5061189;28;20181;-69
2022/09/08 01:56:14;;;;;;;62.85;42.88;;;16.60;99.90;;;;;;5053372;28;20066;-68
2022/09/08 01:58:40;;;;;;;58.35;40.95;;;16.60;99.90;;;;;;5071691;28;20046;-68
2022/09/08 02:01:05;;;;;;;60.80;41.65;;;16.60;99.90;;;;;;5049665;28;20405;-68
2022/09/08 02:03:31;;;;;;;58.35;42.08;;;16.50;99.90;;;;;;5052379;28;20037;-68
2022/09/08 02:06:01;;;;;;;59.92;42.15;;;16.70;99.90;;;;;;5040494;28;20044;-68
2022/09/08 02:08:27;;;;;;;62.92;43.75;;;16.70;99.90;;;;;;5052267;28;20067;-69
2022/09/08 02:10:58;;;;;;;62.53;43.65;;;16.70;99.90;;;;;;5051523;28;20049;-68
2022/09/08 02:13:25;;;;;;;63.67;45.03;;;16.60;99.90;;;;;;5056435;28;20173;-69
2022/09/08 02:15:50;;;;;;;62.40;42.15;;;16.70;99.90;;;;;;5058617;28;20056;-69
2022/09/08 02:18:16;;;;;;;61.45;43.10;;;16.60;99.90;;;;;;5058204;28;20040;-69
2022/09/08 02:20:42;;;;;;;62.90;44.85;;;16.70;99.90;;;;;;5056821;28;20311;-69
2022/09/08 02:23:08;;;;;;;60.53;44.00;;;16.60;99.90;;;;;;5074165;28;20383;-69
2022/09/08 02:25:33;;;;;;;69.78;46.75;;;16.70;99.90;;;;;;5056149;28;20539;-69
2022/09/08 02:27:59;;;;;;;63.60;43.85;;;16.70;99.90;;;;;;5053573;28;20044;-69
2022/09/08 02:30:24;;;;;;;62.38;44.30;;;16.60;99.90;;;;;;5052729;28;20036;-69
2022/09/08 02:32:51;;;;;;;63.25;44.67;;;16.70;99.90;;;;;;5047640;28;20214;-69
2022/09/08 02:35:17;;;;;;;64.93;44.13;;;16.60;99.90;;;;;;5054971;28;20107;-69
2022/09/08 02:37:43;;;;;;;72.07;46.40;;;16.80;99.90;;;;;;5050673;28;20044;-69
2022/09/08 02:40:09;;;;;;;62.28;43.42;;;16.70;99.90;;;;;;5055028;28;20063;-68
2022/09/08 02:42:36;;;;;;;62.50;43.00;;;16.70;99.90;;;;;;5059790;28;20051;-69
2022/09/08 02:45:02;;;;;;;58.33;42.33;;;16.70;99.90;;;;;;5043429;28;20368;-68
2022/09/08 02:47:28;;;;;;;65.57;46.50;;;16.70;99.90;;;;;;5056179;28;20391;-68
2022/09/08 02:49:54;;;;;;;63.88;45.15;;;16.80;99.90;;;;;;5059815;28;20032;-68
2022/09/08 02:52:19;;;;;;;62.28;44.28;;;16.80;99.90;;;;;;5056334;28;20042;-68
2022/09/08 02:54:45;;;;;;;61.60;43.83;;;16.80;99.90;;;;;;5055526;28;20386;-68
2022/09/08 02:57:11;;;;;;;64.32;44.70;;;16.70;99.90;;;;;;5058759;28;20029;-69
2022/09/08 02:59:36;;;;;;;65.05;44.63;;;16.70;99.90;;;;;;5049782;28;20257;-68
2022/09/08 03:02:02;;;;;;;66.55;45.78;;;16.80;99.90;;;;;;5051344;28;20041;-67
2022/09/08 03:04:28;;;;;;;62.97;45.45;;;16.80;99.90;;;;;;5054856;28;20041;-68
2022/09/08 03:06:53;;;;;;;59.17;42.90;;;16.80;99.90;;;;;;5050405;28;20098;-69
2022/09/08 03:09:19;;;;;;;62.90;44.85;;;16.80;99.90;;;;;;5055111;28;20064;-68
2022/09/08 03:11:44;;;;;;;59.45;42.83;;;16.90;99.90;;;;;;5069257;28;20190;-69
2022/09/08 03:14:10;;;;;;;65.53;45.22;;;17.00;99.90;;;;;;5056903;28;20276;-68
2022/09/08 03:16:36;;;;;;;60.13;43.75;;;17.00;99.90;;;;;;5058083;28;20039;-68
2022/09/08 03:19:02;;;;;;;72.05;44.97;;;16.90;99.90;;;;;;5057189;28;20060;-68
2022/09/08 03:21:28;;;;;;;69.50;48.58;;;16.90;99.90;;;;;;5052910;28;20059;-67
2022/09/08 03:23:54;;;;;;;79.47;50.15;;;16.90;99.90;;;;;;5059286;28;20028;-66
2022/09/08 03:26:22;;;;;;;70.88;48.55;;;17.00;99.90;;;;;;5045576;28;20040;-68
2022/09/08 03:28:48;;;;;;;77.35;50.05;;;17.00;99.90;;;;;;5051996;28;20056;-68
2022/09/08 03:31:19;;;;;;;76.70;53.08;;;17.00;99.90;;;;;;5050766;28;20046;-66
2022/09/08 03:33:46;;;;;;;74.20;53.33;;;17.00;99.90;;;;;;5054485;28;20040;-68
2022/09/08 03:36:14;;;;;;;71.32;50.38;;;17.10;99.90;;;;;;5061044;28;20418;-69
2022/09/08 03:38:40;;;;;;;74.28;52.95;;;17.00;99.90;;;;;;5074011;28;20045;-68
2022/09/08 03:41:12;;;;;;;70.82;51.53;;;16.90;99.90;;;;;;5057350;28;20112;-68
2022/09/08 03:43:46;;;;;;;72.25;50.55;;;17.00;99.90;;;;;;5053276;28;20226;-68
2022/09/08 03:46:13;;;;;;;71.25;49.30;;;17.00;99.90;;;;;;5053915;28;20044;-68
2022/09/08 03:48:38;;;;;;;68.47;48.53;;;17.00;99.90;;;;;;5058455;28;20194;-69
2022/09/08 03:51:16;;;;;;;70.25;49.88;;;17.10;99.90;;;;;;5053129;28;20395;-69
2022/09/08 03:53:45;;;;;;;69.45;48.05;;;17.00;99.90;;;;;;5069899;28;20043;-69
2022/09/08 03:56:13;;;;;;;69.20;47.78;;;17.10;99.90;;;;;;5057107;28;20041;-69
2022/09/08 03:58:39;;;;;;;60.33;44.78;;;17.10;99.90;;;;;;5049680;28;20226;-68
2022/09/08 04:01:15;;;;;;;61.17;45.30;;;16.90;99.90;;;;;;5047726;28;20037;-69
2022/09/08 04:03:40;;;;;;;64.38;45.17;;;17.10;99.90;;;;;;5056263;28;20050;-69
2022/09/08 04:06:06;;;;;;;60.78;43.85;;;16.90;99.90;;;;;;5056662;28;20123;-69
2022/09/08 04:08:32;;;;;;;60.25;43.20;;;17.10;99.90;;;;;;5056644;28;20081;-69
2022/09/08 04:10:58;;;;;;;58.95;43.20;;;16.90;99.90;;;;;;5055815;28;20064;-69
2022/09/08 04:13:24;;;;;;;62.10;44.53;;;17.00;99.90;;;;;;5044951;28;20044;-69
2022/09/08 04:15:49;;;;;;;59.90;43.67;;;17.00;99.90;;;;;;5054860;28;20063;-69
2022/09/08 04:18:15;;;;;;;61.33;45.05;;;17.00;99.90;;;;;;5056558;28;20064;-69
2022/09/08 04:20:41;;;;;;;60.80;43.80;;;16.80;99.90;;;;;;5057853;28;20143;-68
2022/09/08 04:23:08;;;;;;;63.58;43.58;;;16.80;99.90;;;;;;5043800;28;20083;-67
2022/09/08 04:25:33;;;;;;;64.95;45.35;;;16.90;99.90;;;;;;5050810;28;20033;-67
2022/09/08 04:27:59;;;;;;;67.75;47.88;;;16.80;99.90;;;;;;5035268;28;20403;-68
2022/09/08 04:30:25;;;;;;;63.95;46.40;;;16.70;99.90;;;;;;5047586;28;20050;-69
2022/09/08 04:32:50;;;;;;;63.60;44.92;;;16.80;99.90;;;;;;5049924;28;20552;-69
2022/09/08 04:35:16;;;;;;;69.45;48.95;;;16.80;99.90;;;;;;5059561;28;20032;-69
2022/09/08 04:37:42;;;;;;;73.68;50.22;;;16.80;99.90;;;;;;5054178;28;20041;-67
2022/09/08 04:40:08;;;;;;;78.93;51.88;;;16.80;99.90;;;;;;5058540;28;20033;-67
2022/09/08 04:42:35;;;;;;;73.95;49.10;;;16.80;99.90;;;;;;5056916;28;20051;-69
2022/09/08 04:45:01;;;;;;;72.43;48.63;;;16.90;99.90;;;;;;5048164;28;20040;-69
2022/09/08 04:47:27;;;;;;;73.95;50.10;;;16.80;99.90;;;;;;5049635;28;20033;-69
2022/09/08 04:49:53;;;;;;;73.82;50.33;;;16.90;99.90;;;;;;5053986;28;20597;-68
2022/09/08 04:52:20;;;;;;;70.32;48.80;;;16.80;99.90;;;;;;5056470;28;20051;-69
2022/09/08 04:54:46;;;;;;;74.50;51.13;;;16.90;99.90;;;;;;5054688;28;20033;-69
2022/09/08 04:57:15;;;;;;;80.40;51.63;;;17.00;99.90;;;;;;5054610;28;20518;-69
2022/09/08 04:59:41;;;;;;;71.97;48.63;;;16.80;99.90;;;;;;5053353;28;20049;-69
2022/09/08 05:02:07;;;;;;;76.93;52.38;;;17.00;99.90;;;;;;5053108;28;20060;-71
2022/09/08 05:04:32;;;;;;;81.20;51.70;;;17.00;99.90;;;;;;5049558;28;20119;-68
2022/09/08 05:06:58;;;;;;;88.05;52.83;;;16.80;99.90;;;;;;5054340;28;20037;-68
2022/09/08 05:09:24;;;;;;;91.22;53.80;;;16.90;99.90;;;;;;5040333;28;20041;-68
2022/09/08 05:11:49;;;;;;;81.13;51.30;;;16.90;99.90;;;;;;5046839;28;20040;-68
2022/09/08 05:14:15;;;;;;;78.55;51.70;;;16.80;99.90;;;;;;5046843;28;20093;-68
2022/09/08 05:16:40;;;;;;;82.10;52.40;;;16.80;99.90;;;;;;5057103;28;20153;-67
2022/09/08 05:19:07;;;;;;;82.18;51.75;;;16.70;99.90;;;;;;5053726;28;20261;-67
2022/09/08 05:21:34;;;;;;;90.28;53.72;;;16.50;99.90;;;;;;5053034;28;20037;-69
2022/09/08 05:24:01;;;;;;;84.50;51.97;;;16.50;99.90;;;;;;5046671;28;20040;-70
2022/09/08 05:26:28;;;;;;;93.22;54.58;;;16.60;99.90;;;;;;5055837;28;20051;-69
2022/09/08 05:28:54;;;;;;;93.38;55.28;;;16.60;99.90;;;;;;5058136;28;20040;-71
2022/09/08 05:31:25;;;;;;;83.68;52.53;;;16.40;99.90;;;;;;5056356;28;20048;-70
2022/09/08 05:33:52;;;;;;;92.80;55.85;;;16.40;99.90;;;;;;5046700;28;20065;-71
2022/09/08 05:36:21;;;;;;;91.10;54.58;;;16.60;99.90;;;;;;5056281;28;20044;-69
2022/09/08 05:38:47;;;;;;;95.60;57.65;;;16.60;99.90;;;;;;5057042;28;20044;-72
2022/09/08 05:41:15;;;;;;;98.78;58.83;;;16.40;99.90;;;;;;5049112;28;20036;-72
2022/09/08 05:43:41;;;;;;;93.10;56.05;;;16.50;99.90;;;;;;5040236;28;20028;-70
2022/09/08 05:46:08;;;;;;;96.90;57.20;;;16.40;99.90;;;;;;5049324;28;20049;-73
2022/09/08 05:48:33;;;;;;;90.78;56.97;;;16.40;99.90;;;;;;5047497;28;20044;-73
2022/09/08 05:50:59;;;;;;;104.85;59.15;;;16.40;99.90;;;;;;5053817;28;20041;-73
2022/09/08 05:53:26;;;;;;;93.18;56.13;;;16.60;99.90;;;;;;5050969;28;20087;-72
2022/09/08 05:55:57;;;;;;;116.38;60.83;;;16.50;99.90;;;;;;5049855;28;20106;-73
2022/09/08 05:58:23;;;;;;;92.85;55.58;;;16.50;99.90;;;;;;5053609;28;20041;-72
2022/09/08 06:01:01;;;;;;;118.63;61.25;;;16.50;99.90;;;;;;5061344;28;20033;-72
2022/09/08 06:03:27;;;;;;;152.77;66.38;;;16.70;99.90;;;;;;5051240;28;20025;-72
2022/09/08 06:05:54;;;;;;;129.88;64.20;;;16.70;99.90;;;;;;5056868;28;20184;-72
2022/09/08 06:08:21;;;;;;;130.73;65.25;;;16.70;99.90;;;;;;5057907;28;20041;-73
2022/09/08 06:10:51;;;;;;;134.77;65.55;;;16.60;99.90;;;;;;5053729;28;20077;-72
2022/09/08 06:13:18;;;;;;;132.30;63.70;;;16.70;99.90;;;;;;5034182;28;20490;-72
2022/09/08 06:15:44;;;;;;;98.13;56.88;;;16.60;99.90;;;;;;5054044;28;20830;-72
2022/09/08 06:18:09;;;;;;;93.57;57.72;;;16.80;99.90;;;;;;5056562;28;20216;-72
2022/09/08 06:20:35;;;;;;;96.88;58.40;;;16.50;99.90;;;;;;5056505;28;20108;-72
2022/09/08 06:23:01;;;;;;;108.78;60.58;;;16.70;99.90;;;;;;5050558;28;20051;-73
2022/09/08 06:25:27;;;;;;;97.97;59.10;;;16.60;99.90;;;;;;5056690;28;20040;-73
2022/09/08 06:28:18;;;;;;;140.93;64.80;;;16.80;99.90;;;;;;5053377;28;20084;-71
2022/09/08 06:30:50;;;;;;;89.72;55.33;;;16.60;99.90;;;;;;5057532;28;20036;-71
2022/09/08 06:33:24;;;;;;;92.90;57.03;;;16.80;99.90;;;;;;5060091;28;20044;-72
2022/09/08 06:35:55;;;;;;;99.43;57.88;;;16.80;99.90;;;;;;5063953;28;20079;-70
2022/09/08 06:38:37;;;;;;;94.95;56.83;;;16.70;99.90;;;;;;5056812;28;20045;-71
2022/09/08 06:41:16;;;;;;;142.63;65.97;;;16.80;99.90;;;;;;5052668;28;20483;-71
2022/09/08 06:43:50;;;;;;;130.13;65.32;;;16.90;99.90;;;;;;5055637;28;20052;-70
2022/09/08 06:46:37;;;;;;;124.90;65.32;;;16.70;99.90;;;;;;5053881;28;20527;-70
2022/09/08 06:49:03;;;;;;;141.25;66.85;;;16.90;99.90;;;;;;5052507;28;20127;-69
2022/09/08 06:51:42;;;;;;;97.68;48.10;;;16.80;99.90;;;;;;5056218;28;20123;-69
2022/09/08 06:54:25;;;;;;;73.05;41.15;;;16.90;99.90;;;;;;5049394;28;20097;-69
2022/09/08 06:57:09;;;;;;;74.05;38.22;;;16.80;99.90;;;;;;5063350;28;20080;-70
2022/09/08 06:59:58;;;;;;;61.05;34.63;;;16.80;99.90;;;;;;5054839;28;20539;-72
2022/09/08 07:02:38;;;;;;;63.67;34.45;;;16.90;99.90;;;;;;5067919;28;20060;-70
2022/09/08 07:05:29;;;;;;;57.75;31.15;;;16.90;99.90;;;;;;5057743;28;20075;-71
2022/09/08 07:08:18;;;;;;;54.83;31.00;;;16.90;99.90;;;;;;5059878;28;20040;-70
2022/09/08 07:11:00;;;;;;;34.53;21.58;;;16.90;99.90;;;;;;5050562;28;20043;-69
2022/09/08 07:13:32;;;;;;;;;;;16.80;99.90;;;;;;5071354;28;20037;-71
2022/09/08 07:16:04;;;;;;;21.97;13.77;;;16.60;99.90;;;;;;5057132;28;20360;-69
2022/09/08 07:19:00;;;;;;;20.90;12.63;;;16.80;99.90;;;;;;5058834;28;20040;-72
2022/09/08 07:21:38;;;;;;;22.92;12.90;;;16.60;99.90;;;;;;5056412;28;20037;-66
2022/09/08 07:24:10;;;;;;;22.13;11.75;;;16.60;99.90;;;;;;5057475;28;20048;-70
2022/09/08 07:26:41;;;;;;;17.15;10.43;;;16.50;99.90;;;;;;5044962;28;20548;-70
2022/09/08 07:29:29;;;;;;;21.60;10.20;;;16.50;99.90;;;;;;5052222;28;20400;-70
2022/09/08 07:31:57;;;;;;;20.17;10.35;;;16.60;99.90;;;;;;5053800;28;20083;-70
2022/09/08 07:34:26;;;;;;;18.92;10.20;;;16.60;99.90;;;;;;5057652;28;20032;-68
2022/09/08 07:37:04;;;;;;;17.25;10.43;;;16.50;99.90;;;;;;5068254;28;20041;-70
2022/09/08 07:40:04;;;;;;;19.50;10.55;;;16.50;99.90;;;;;;5050991;28;20056;-70
2022/09/08 07:42:31;;;;;;;16.42;9.85;;;16.50;99.90;;;;;;5028186;28;20056;-67
2022/09/08 07:44:59;;;;;;;17.08;9.80;;;16.70;99.90;;;;;;5055771;28;20131;-68
2022/09/08 07:47:40;;;;;;;15.07;9.88;;;16.60;99.90;;;;;;5053984;28;20114;-67
2022/09/08 07:50:53;;;;;;;20.92;10.60;;;16.70;99.90;;;;;;5054337;28;20083;-67
2022/09/08 07:53:34;;;;;;;21.90;10.70;;;16.60;99.90;;;;;;5057744;28;20083;-67
2022/09/08 07:56:32;;;;;;;17.67;10.68;;;16.80;99.90;;;;;;5047208;28;20040;-68
2022/09/08 07:59:09;;;;;;;16.63;10.50;;;16.70;99.90;;;;;;5048341;28;20554;-68
2022/09/08 08:02:03;;;;;;;20.83;10.52;;;16.80;99.90;;;;;;5047175;28;20655;-69
2022/09/08 08:04:54;;;;;;;18.30;10.45;;;16.70;99.90;;;;;;5027153;28;20052;-69
2022/09/08 08:07:39;;;;;;;22.10;10.82;;;16.90;99.90;;;;;;5028405;28;20166;-70
2022/09/08 08:10:22;;;;;;;17.95;9.70;;;16.90;99.90;;;;;;5055193;28;20036;-71
2022/09/08 08:13:03;;;;;;;21.67;12.07;;;16.80;99.90;;;;;;5048847;28;20047;-72
2022/09/08 08:15:42;;;;;;;22.75;12.20;;;16.80;99.90;;;;;;5046412;28;20029;-72
2022/09/08 08:18:13;;;;;;;20.60;12.15;;;16.90;99.90;;;;;;5042537;28;20470;-71
2022/09/08 08:21:04;;;;;;;22.30;12.15;;;16.70;99.90;;;;;;5047844;28;20045;-71
2022/09/08 08:23:33;;;;;;;23.33;13.10;;;16.80;99.90;;;;;;5048154;28;20271;-71
2022/09/08 08:26:07;;;;;;;25.58;13.15;;;17.00;99.90;;;;;;5055582;28;20088;-71
2022/09/08 08:28:40;;;;;;;23.27;12.57;;;16.90;99.90;;;;;;5054001;28;20036;-71
2022/09/08 08:31:30;;;;;;;23.23;13.27;;;16.70;99.90;;;;;;5042082;28;20037;-71
2022/09/08 08:34:16;;;;;;;22.52;13.50;;;16.70;99.90;;;;;;5065237;28;20040;-71
2022/09/08 08:36:45;;;;;;;29.20;13.10;;;16.90;99.90;;;;;;5031567;28;20067;-70
2022/09/08 08:39:21;;;;;;;32.15;14.20;;;16.70;99.90;;;;;;5053411;28;20083;-71
2022/09/08 08:41:46;;;;;;;27.88;14.27;;;16.80;99.90;;;;;;5057272;28;20044;-70
2022/09/08 08:44:40;;;;;;;30.00;13.93;;;16.80;99.90;;;;;;5053249;28;20487;-69
2022/09/08 08:47:23;;;;;;;23.70;12.98;;;17.00;99.90;;;;;;5064047;28;20060;-69
2022/09/08 08:50:07;;;;;;;33.38;14.57;;;16.90;99.90;;;;;;5054395;28;20066;-69
2022/09/08 08:52:47;;;;;;;30.13;14.60;;;17.00;99.90;;;;;;5065168;28;20042;-69
2022/09/08 08:55:30;;;;;;;30.17;14.00;;;16.80;99.90;;;;;;5068012;28;20053;-70
2022/09/08 08:58:22;;;;;;;22.35;11.70;;;17.00;99.90;;;;;;5071942;28;20128;-69
2022/09/08 09:01:12;;;;;;;23.67;12.43;;;16.80;99.90;;;;;;5017468;28;20057;-69
2022/09/08 09:03:55;;;;;;;30.23;13.43;;;16.70;99.90;;;;;;5046000;28;20040;-70
2022/09/08 09:06:45;;;;;;;20.45;10.57;;;16.70;99.90;;;;;;5055025;28;20082;-70
2022/09/08 09:09:28;;;;;;;23.58;10.93;;;16.60;99.90;;;;;;5062407;28;20443;-69
2022/09/08 09:12:12;;;;;;;;;;;16.70;99.90;;;;;;5060176;28;20040;-70
2022/09/08 09:14:50;;;;;;;23.10;10.93;;;16.80;99.90;;;;;;5045151;28;19917;-69
2022/09/08 09:17:53;;;;;;;19.58;11.07;;;16.60;99.90;;;;;;5067716;28;20044;-69
2022/09/08 09:20:19;;;;;;;20.88;9.85;;;16.70;99.90;;;;;;5046557;28;20053;-69
2022/09/08 09:22:54;;;;;;;23.05;11.20;;;16.70;99.90;;;;;;5046198;28;20060;-69
2022/09/08 09:25:39;;;;;;;20.27;10.85;;;16.60;99.90;;;;;;5047378;28;20096;-69
2022/09/08 09:28:39;;;;;;;23.10;9.82;;;16.60;99.90;;;;;;5065747;28;20045;-69
2022/09/08 09:31:42;;;;;;;18.20;9.38;;;16.70;99.90;;;;;;5040941;28;20409;-69
2022/09/08 09:34:37;;;;;;;19.38;9.70;;;16.50;99.90;;;;;;5043615;28;20041;-69
2022/09/08 09:37:21;;;;;;;19.45;9.07;;;16.50;99.90;;;;;;5034113;28;20159;-71
2022/09/08 09:39:53;;;;;;;16.90;8.55;;;16.60;99.90;;;;;;5047552;28;20053;-73
2022/09/08 09:42:31;;;;;;;16.63;8.40;;;16.60;99.90;;;;;;5051691;28;20041;-70
2022/09/08 09:45:00;;;;;;;20.52;8.25;;;16.60;99.90;;;;;;5054166;28;20041;-71
2022/09/08 09:48:14;;;;;;;14.40;7.95;;;16.60;99.90;;;;;;5055063;28;20480;-72
2022/09/08 09:50:47;;;;;;;18.83;8.13;;;16.50;99.90;;;;;;5056479;28;20566;-72
2022/09/08 09:53:27;;;;;;;16.80;8.52;;;16.50;99.90;;;;;;5050782;28;20052;-71
2022/09/08 09:56:23;;;;;;;14.30;8.25;;;16.60;99.90;;;;;;5056609;28;20048;-68
2022/09/08 09:59:20;;;;;;;14.00;8.10;;;16.40;99.90;;;;;;5053160;28;20049;-75
2022/09/08 10:02:35;;;;;;;17.60;8.30;;;16.60;99.90;;;;;;5048612;28;20045;-69
2022/09/08 10:05:37;;;;;;;13.77;8.13;;;16.40;99.90;;;;;;5052260;28;20514;-70
2022/09/08 10:08:33;;;;;;;10.70;6.75;;;16.40;99.90;;;;;;5043609;28;20128;-70
2022/09/08 10:11:37;;;;;;;13.18;7.30;;;16.50;99.90;;;;;;5058741;28;20044;-74
2022/09/08 10:14:25;;;;;;;10.20;6.80;;;16.30;99.90;;;;;;5050446;28;20037;-71
2022/09/08 10:17:09;;;;;;;13.45;7.03;;;16.40;99.90;;;;;;5054482;28;20308;-71
2022/09/08 10:20:04;;;;;;;13.75;7.30;;;16.40;99.90;;;;;;5055943;28;20044;-71
2022/09/08 10:22:44;;;;;;;12.20;8.02;;;16.20;99.90;;;;;;5069553;28;20055;-74
2022/09/08 10:25:39;;;;;;;15.65;8.73;;;16.30;99.90;;;;;;5059619;28;20049;-74
2022/09/08 10:28:36;;;;;;;14.88;8.73;;;16.20;99.90;;;;;;5055949;28;20036;-72
2022/09/08 10:31:48;;;;;;;14.48;8.77;;;16.20;99.90;;;;;;5055098;28;20036;-76
2022/09/08 10:34:29;;;;;;;15.57;9.20;;;16.20;99.90;;;;;;5059471;28;20560;-75
2022/09/08 10:37:09;;;;;;;15.82;8.40;;;16.50;99.90;;;;;;5055710;28;20402;-76
2022/09/08 10:39:53;;;;;;;13.27;7.72;;;16.30;99.90;;;;;;5059984;28;20404;-76
2022/09/08 10:42:43;;;;;;;11.13;7.00;;;16.50;99.90;;;;;;5077779;28;20045;-75
2022/09/08 10:45:54;;;;;;;10.93;6.93;;;16.50;99.90;;;;;;5055639;28;20033;-79
2022/09/08 10:48:34;;;;;;;11.38;6.53;;;16.30;99.90;;;;;;5034644;28;20061;-76
2022/09/08 10:51:36;;;;;;;12.35;7.40;;;16.30;99.90;;;;;;5048390;28;20516;-74
2022/09/08 10:54:23;;;;;;;12.82;7.25;;;16.40;99.90;;;;;;5049655;28;20076;-76
2022/09/08 10:56:49;;;;;;;14.00;7.30;;;16.40;99.90;;;;;;5058085;28;20067;-77
2022/09/08 10:59:42;;;;;;;13.77;7.40;;;16.60;99.90;;;;;;5072236;28;20036;-76
2022/09/08 11:02:33;;;;;;;10.90;6.50;;;16.40;99.90;;;;;;5066577;28;20045;-75
2022/09/08 11:05:20;;;;;;;11.23;6.72;;;16.60;99.90;;;;;;5046111;28;20060;-75
2022/09/08 11:07:58;;;;;;;11.40;6.43;;;16.60;99.90;;;;;;5059496;28;20583;-76
2022/09/08 11:10:51;;;;;;;10.02;7.05;;;16.60;99.90;;;;;;5061602;28;20391;-74
2022/09/08 11:13:43;;;;;;;12.20;7.35;;;16.50;99.90;;;;;;5071345;28;20413;-73
2022/09/08 11:16:23;;;;;;;10.82;7.32;;;16.80;99.90;;;;;;5050544;28;20036;-76
2022/09/08 11:18:52;;;;;;;12.35;7.60;;;16.80;99.90;;;;;;5076048;28;20499;-75
2022/09/08 11:21:39;;;;;;;13.25;7.85;;;16.90;99.90;;;;;;5058457;28;20063;-74
2022/09/08 11:24:19;;;;;;;14.60;8.52;;;16.90;99.90;;;;;;5043864;28;20044;-73
2022/09/08 11:27:17;;;;;;;14.23;8.48;;;16.70;99.90;;;;;;5060317;28;20040;-73
2022/09/08 11:29:43;;;;;;;15.13;9.65;;;17.00;99.90;;;;;;5041820;28;20080;-73
2022/09/08 11:32:38;;;;;;;16.77;9.15;;;17.10;99.90;;;;;;5051317;28;20147;-72
2022/09/08 11:35:13;;;;;;;16.60;9.88;;;16.90;99.90;;;;;;5075978;28;20036;-71
2022/09/08 11:37:55;;;;;;;19.90;11.32;;;17.20;99.90;;;;;;5067448;28;20072;-71
2022/09/08 11:40:39;;;;;;;;;;;17.30;99.90;;;;;;5046663;28;20037;-71
2022/09/08 11:43:35;;;;;;;20.27;12.05;;;17.40;99.90;;;;;;5040292;28;20371;-71
2022/09/08 11:46:17;;;;;;;23.15;13.13;;;17.30;99.90;;;;;;5049273;28;20429;-72
2022/09/08 11:48:49;;;;;;;21.15;12.57;;;17.50;99.90;;;;;;5057659;28;20079;-73
2022/09/08 11:51:19;;;;;;;;;;;17.60;99.90;;;;;;5060790;28;20048;-70
2022/09/08 11:53:55;;;;;;;19.88;11.90;;;17.40;99.90;;;;;;5049227;28;19925;-71
2022/09/08 11:56:53;;;;;;;19.13;12.68;;;17.70;99.90;;;;;;5047655;28;20041;-71
2022/09/08 11:59:56;;;;;;;23.67;13.75;;;17.60;99.90;;;;;;5039497;28;20049;-76
2022/09/08 12:02:55;;;;;;;23.80;14.30;;;17.60;99.90;;;;;;5046328;28;20041;-70
2022/09/08 12:05:34;;;;;;;20.80;13.77;;;17.90;99.90;;;;;;5047324;28;20051;-70
2022/09/08 12:08:15;;;;;;;21.45;13.52;;;17.80;99.90;;;;;;5044968;28;20394;-69
2022/09/08 12:10:54;;;;;;;18.63;13.32;;;17.80;99.90;;;;;;5056901;28;20049;-70
2022/09/08 12:13:29;;;;;;;19.90;13.27;;;17.80;99.90;;;;;;5047400;28;20550;-69
2022/09/08 12:16:15;;;;;;;23.05;14.88;;;18.00;99.90;;;;;;5034607;28;20041;-70
2022/09/08 12:19:02;;;;;;;19.92;13.90;;;18.10;99.90;;;;;;5049420;28;20049;-69
2022/09/08 12:21:36;;;;;;;18.10;13.23;;;17.90;99.90;;;;;;5037226;28;20055;-69
2022/09/08 12:24:24;;;;;;;22.13;14.27;;;18.00;99.90;;;;;;5050894;28;20498;-69
2022/09/08 12:27:03;;;;;;;21.98;14.45;;;18.10;99.90;;;;;;5048934;28;20403;-68
2022/09/08 12:29:47;;;;;;;22.33;14.52;;;18.20;99.90;;;;;;5047612;28;20109;-69
2022/09/08 12:32:31;;;;;;;20.38;13.98;;;18.30;99.90;;;;;;5071031;28;20040;-68
2022/09/08 12:35:40;;;;;;;20.88;13.13;;;18.30;99.90;;;;;;5048291;28;20048;-68
2022/09/08 12:38:31;;;;;;;20.00;13.15;;;18.40;99.90;;;;;;5048637;28;20086;-68
2022/09/08 12:41:18;;;;;;;18.83;13.32;;;18.70;99.90;;;;;;5039909;28;20508;-69
2022/09/08 12:43:44;;;;;;;18.23;12.45;;;18.60;99.90;;;;;;5048367;28;20044;-69
2022/09/08 12:46:18;;;;;;;22.25;13.05;;;18.80;99.90;;;;;;5042716;28;20044;-69
2022/09/08 12:48:55;;;;;;;20.83;13.93;;;18.90;99.90;;;;;;5048285;28;20037;-69
2022/09/08 12:51:30;;;;;;;19.60;13.73;;;18.90;99.90;;;;;;5048243;28;20072;-70
2022/09/08 12:54:04;;;;;;;19.98;13.32;;;18.90;99.90;;;;;;5031636;28;20040;-70
2022/09/08 12:57:03;;;;;;;20.05;13.45;;;19.00;99.90;;;;;;5054944;28;20048;-70
2022/09/08 13:00:06;;;;;;;19.00;13.15;;;19.10;99.90;;;;;;5058650;28;20049;-70
2022/09/08 13:02:34;;;;;;;;;;;19.10;99.90;;;;;;5041821;28;20148;-70
2022/09/08 13:05:00;;;;;;;19.52;13.18;;;19.00;99.90;;;;;;5047878;28;19974;-69
2022/09/08 13:07:46;;;;;;;19.40;13.07;;;19.20;99.90;;;;;;5046503;28;20061;-71
2022/09/08 13:10:21;;;;;;;18.25;13.25;;;19.20;99.90;;;;;;5033559;28;20042;-71
2022/09/08 13:13:35;;;;;;;21.30;13.23;;;19.10;99.90;;;;;;5064853;28;20472;-71
2022/09/08 13:16:06;;;;;;;16.00;11.65;;;19.10;99.90;;;;;;5031206;28;20541;-71
2022/09/08 13:18:41;;;;;;;19.48;11.85;;;19.00;99.90;;;;;;5052963;28;20048;-71